DIRECCIÓN GENERAL DE AERONÁUTICA CIVIL
DIRECCIÓN METEOROLÓGICA DE CHILE
INFORMACIÓN METAR Y TAF

FIR PUERTO MONTT

Estación: SCTC
METAR SCTC 231000Z VRB01KT 3000 BR OVC006 10/10 Q1018=

TAF SCTC 230440Z 2306/2406 24003KT 9999 OVC006 TN07/2311Z TX20/2319Z BECMG 2307/2309 VRB01KT 0500 FG OVC002 BECMG 2313/2315 24005KT 9999 BKN010 BECMG 2316/2318 FEW015 BKN200=

Estación: SCVD
METAR SCVD 222200Z 17005KT 9999 FEW040 BKN200 17/13 Q1017=

TAF SCVD 221632Z 2218/2306 VRB02KT 2200 BR BKN003 TX15/2218Z TN08/ 2306Z BECMG 2219/2221 18006KT 9999 SCT020 BECMG 2300/2302 VRB02KT PROB40 TEMPO 2303/2306 0800 FG BKN004=

Estación: SCJO
METAR SCJO 222200Z 14004KT 9999 FEW025 SCT200 16/13 Q1018=

TAF SCJO 221633Z 2218/2306 VRB02KT 8000 VCFG BKN015 TX17/2219Z TN07/ 2306Z BECMG 2219/2221 18006KT 9999 SCT030 BECMG 2200/2202 VRB02KT PROB40 TEMPO 2303/2306 1000 FG BKN007=

Estación: SCTE
METAR SCTE 231000Z VRB03KT 1500 BR SCT004 11/10 Q1020 NOSIG=

TAF SCTE 230435Z 2306/2406 19003KT 1000 BR OVC005 TN07/2311Z TX17/ 2319Z TEMPO 2306/2313 VRB01KT 0600 FG OVC002 BECMG 2314/2316 17005KT 9999 BKN013 BECMG 2316/2318 SCT030 BKN200=

Estación: SCON
METAR SCON 231000Z AUTO 00000KT 9000 ///011 11/// Q1020=

TAF SCON 221635Z 2218/2306 23002KT 9999 FEW001 TX15/2219Z TN10/2306Z BECMG 2219/2221 OVC015 PROB40 TEMPO 2303/2306 0800 FG BKN004=

Estación: SCTN
METAR SCTN NIL=

TAF SCTN NIL=

Estación: SCFT
METAR SCFT 231000Z AUTO 11001KT 1000 R/////// FG VV001 05/04 Q1022=

TAF SCFT NIL=

Estación: SCAP
SPECI SCAP 231022Z AUTO VRB02KT 9999 OVC012 03/03 Q1027=

TAF SCAP NIL=

Estación: SCMK
METAR SCMK 222100Z 03003KT 9999 OVC013 13/// Q1019=

TAF SCMK 221636Z 2218/2306 04004KT 9999 BKN013 TX15/2219Z TN10/2306Z BECMG 2219/2221 19006KT OVC015 BECMG 2300/2302 VRB02KT 6000 PROB30 TEMPO 2303/2306 0800 FG BKN004=

Estación: SCAS
METAR SCAS 222000Z 24010KT 9999 BKN043 14/10 Q1019=

TAF SCAS NIL=

Estación: SCCY
METAR SCCY 230000Z 00000KT 9999 FEW036 09/05 Q1019=

TAF SCCY 221637Z 2218/2306 16003KT 9999 FEW036 TX16/2218Z TN06/2306Z BECMG 2300/2302 BKN020=

Estación: SCBA
METAR SCBA 231000Z AUTO 32002KT CAVOK 03/01 Q1019=

TAF SCBA 230430Z 2306/2406 29008KT 9999 SCT040 SCT200 TN02/2310Z TX15 /2319Z TEMPO 2306/2312 CAVOK BECMG 2312/2314 FEW040 SCT200=

Estación: SCCC
METAR SCCC 222000Z 30019KT CAVOK 18/01 Q1015=

TAF SCCC CECF 7687=

Estación: SCHR
METAR SCHR 222000Z 29010KT 9999 FEW040 15/07 Q1014=

TAF SCHR 231035Z 2312/2400 VRB03KT FEW040 TN04/2312Z TX14/2316Z TEMPO 2313/2317 35008KT CAVOK=


Volver